Time;durP1;ratioP1;P1;durP2;ratioP2;P2;SDS_P1;SDS_P2;PMS_P1;PMS_P2;Temp;Humidity;BMP_temperature;BMP_pressure;BME280_temperature;BME280_humidity;BME280_pressure;Samples;Min_cycle;Max_cycle;Signal;HPM_P1;HPM_P2
2021/01/21 00:00:26;;;;;;;3.57;1.20;;;;;;;8.22;84.21;98537.72;5006862;28;20041;-65
2021/01/21 00:02:51;;;;;;;4.27;0.90;;;;;;;8.38;82.75;98524.38;5010689;28;20034;-65
2021/01/21 00:05:17;;;;;;;4.60;1.40;;;;;;;8.30;83.74;98531.47;5011123;28;20030;-65
2021/01/21 00:07:43;;;;;;;4.57;1.27;;;;;;;8.42;83.15;98528.59;5006543;28;20109;-65
2021/01/21 00:10:09;;;;;;;2.60;1.10;;;;;;;8.51;82.57;98533.59;5007107;28;21215;-65
2021/01/21 00:12:34;;;;;;;5.33;1.00;;;;;;;8.56;82.76;98530.84;5007588;28;20085;-65
2021/01/21 00:15:00;;;;;;;4.93;1.40;;;;;;;8.51;83.16;98524.00;5007501;28;20033;-65
2021/01/21 00:17:25;;;;;;;5.57;1.30;;;;;;;8.56;83.05;98508.25;5006299;28;20386;-66
2021/01/21 00:19:51;;;;;;;4.33;1.43;;;;;;;8.60;82.72;98511.63;5005263;28;20108;-64
2021/01/21 00:22:16;;;;;;;2.13;1.13;;;;;;;8.57;83.11;98511.72;5007116;28;20056;-65
2021/01/21 00:24:42;;;;;;;3.60;1.33;;;;;;;8.51;83.18;98510.13;5005284;28;20460;-65
2021/01/21 00:27:07;;;;;;;5.37;1.30;;;;;;;8.52;83.63;98496.22;5000759;28;20033;-64
2021/01/21 00:29:32;;;;;;;5.40;1.40;;;;;;;8.53;83.30;98482.31;5012595;28;20032;-65
2021/01/21 00:31:58;;;;;;;3.27;1.20;;;;;;;8.56;82.93;98473.53;5011013;28;20034;-65
2021/01/21 00:34:24;;;;;;;4.40;1.30;;;;;;;8.47;83.72;98466.81;5008445;28;20424;-65
2021/01/21 00:36:50;;;;;;;3.13;1.30;;;;;;;8.48;83.63;98476.38;5006329;28;20025;-65
2021/01/21 00:39:16;;;;;;;4.20;1.40;;;;;;;8.40;84.57;98467.88;5007026;28;20056;-65
2021/01/21 00:41:41;;;;;;;3.60;1.23;;;;;;;8.37;84.74;98457.56;5009910;28;20056;-65
2021/01/21 00:44:06;;;;;;;5.70;1.57;;;;;;;8.27;85.15;98461.25;5003766;28;20117;-65
2021/01/21 00:46:32;;;;;;;5.00;1.40;;;;;;;8.20;85.97;98450.13;5008814;28;20034;-65
2021/01/21 00:48:57;;;;;;;4.20;1.50;;;;;;;8.10;86.39;98452.09;5006135;28;20126;-65
2021/01/21 00:51:23;;;;;;;5.77;1.57;;;;;;;8.05;86.95;98450.53;5009301;28;20493;-66
2021/01/21 00:53:49;;;;;;;3.67;1.33;;;;;;;8.04;86.98;98436.66;5010546;28;20029;-65
2021/01/21 00:56:14;;;;;;;6.60;1.50;;;;;;;8.00;87.45;98442.84;5008116;28;20062;-65
2021/01/21 00:58:39;;;;;;;4.40;1.30;;;;;;;8.00;87.32;98437.63;5006932;28;20025;-65
2021/01/21 01:01:05;;;;;;;4.23;1.50;;;;;;;8.05;86.78;98420.16;5010953;28;20025;-66
2021/01/21 01:03:31;;;;;;;7.10;1.70;;;;;;;8.07;87.36;98420.97;5008382;28;20041;-65
2021/01/21 01:05:56;;;;;;;3.20;1.50;;;;;;;7.98;87.73;98417.72;5007301;28;20037;-65
2021/01/21 01:08:22;;;;;;;3.00;1.20;;;;;;;8.01;87.69;98421.13;5007729;28;20033;-65
2021/01/21 01:10:47;;;;;;;5.17;1.40;;;;;;;7.98;88.56;98415.97;5003620;28;20121;-65
2021/01/21 01:13:13;;;;;;;3.87;1.20;;;;;;;8.03;87.95;98410.69;5010971;28;20025;-65
2021/01/21 01:15:38;;;;;;;5.80;1.47;;;;;;;8.02;87.61;98404.63;5002900;28;20109;-65
2021/01/21 01:18:04;;;;;;;5.13;1.60;;;;;;;7.95;88.36;98403.06;5007190;28;20102;-66
2021/01/21 01:20:29;;;;;;;3.57;1.20;;;;;;;8.03;88.13;98395.91;5009573;28;20496;-65
2021/01/21 01:22:55;;;;;;;3.43;1.40;;;;;;;8.07;87.32;98394.94;5003820;28;20040;-65
2021/01/21 01:25:21;;;;;;;5.67;1.37;;;;;;;7.97;87.70;98379.59;5009119;28;20389;-65
2021/01/21 01:27:47;;;;;;;3.70;1.30;;;;;;;7.94;88.18;98385.72;5004336;28;20030;-65
2021/01/21 01:30:14;;;;;;;4.40;1.20;;;;;;;7.92;87.96;98377.97;5010418;28;20030;-66
2021/01/21 01:32:39;;;;;;;3.57;1.50;;;;;;;7.90;88.65;98376.31;5011869;28;20108;-66
2021/01/21 01:35:06;;;;;;;6.37;1.40;;;;;;;7.83;89.00;98366.94;5008644;28;20113;-65
2021/01/21 01:37:31;;;;;;;4.10;1.40;;;;;;;7.77;89.32;98361.91;5005774;28;20374;-65
2021/01/21 01:39:56;;;;;;;5.20;1.30;;;;;;;7.70;89.69;98357.72;5004393;28;20041;-66
2021/01/21 01:42:22;;;;;;;4.90;1.20;;;;;;;7.69;89.49;98333.47;5008197;28;20404;-66
2021/01/21 01:44:48;;;;;;;4.23;1.20;;;;;;;7.64;90.08;98330.16;5008427;28;20542;-65
2021/01/21 01:47:15;;;;;;;3.00;1.00;;;;;;;7.67;89.81;98324.00;5007230;28;20034;-65
2021/01/21 01:49:40;;;;;;;4.10;1.40;;;;;;;7.57;89.78;98319.03;5005680;28;20064;-65
2021/01/21 01:52:06;;;;;;;6.53;1.67;;;;;;;7.70;89.26;98318.72;5004815;28;20404;-65
2021/01/21 01:54:31;;;;;;;3.97;1.27;;;;;;;7.72;89.11;98311.72;5007149;28;20092;-65
2021/01/21 01:56:58;;;;;;;4.80;1.43;;;;;;;7.69;89.32;98296.22;5009191;28;20108;-65
2021/01/21 01:59:24;;;;;;;4.27;1.47;;;;;;;7.67;89.74;98290.19;5007371;28;20026;-65
2021/01/21 02:01:50;;;;;;;5.23;1.40;;;;;;;7.64;89.46;98294.59;5008689;28;20412;-65
2021/01/21 02:04:15;;;;;;;2.77;1.37;;;;;;;7.73;88.71;98298.69;5012623;28;20370;-65
2021/01/21 02:06:41;;;;;;;3.60;1.30;;;;;;;7.67;89.08;98285.84;5003005;28;20041;-65
2021/01/21 02:09:07;;;;;;;4.03;1.30;;;;;;;7.57;89.64;98285.22;5002226;28;20619;-65
2021/01/21 02:12:02;;;;;;;2.73;1.10;;;;;;;7.53;90.63;98280.16;5005375;28;20029;-65
2021/01/21 02:14:37;;;;;;;2.47;1.20;;;;;;;7.57;90.40;98268.78;4993129;28;20505;-65
2021/01/21 02:17:07;;;;;;;4.77;1.30;;;;;;;7.62;89.91;98261.69;5007642;28;20390;-65
2021/01/21 02:19:35;;;;;;;4.87;1.47;;;;;;;7.67;89.35;98272.00;5007482;28;20038;-65
2021/01/21 02:22:31;;;;;;;3.27;1.10;;;;;;;7.51;90.64;98256.78;5004901;28;20049;-65
2021/01/21 02:25:09;;;;;;;2.93;1.20;;;;;;;7.42;90.86;98241.41;5002620;28;20042;-66
2021/01/21 02:28:14;;;;;;;3.67;1.40;;;;;;;7.49;90.50;98234.31;5008116;28;20034;-65
2021/01/21 02:30:54;;;;;;;3.03;1.10;;;;;;;7.55;90.37;98222.00;5002956;28;20034;-66
2021/01/21 02:33:22;;;;;;;4.77;1.70;;;;;;;7.78;88.39;98202.31;5010450;28;20032;-65
2021/01/21 02:35:51;;;;;;;5.30;1.50;;;;;;;7.89;87.79;98195.94;5009838;28;20025;-65
2021/01/21 02:38:20;;;;;;;3.73;1.30;;;;;;;7.92;87.73;98176.78;5007102;28;20026;-65
2021/01/21 02:40:48;;;;;;;5.03;1.37;;;;;;;8.14;85.79;98184.81;5001109;28;20393;-64
2021/01/21 02:43:14;;;;;;;2.50;1.10;;;;;;;8.23;85.29;98174.09;5008364;28;20029;-65
2021/01/21 02:45:40;;;;;;;2.27;1.00;;;;;;;8.14;86.52;98159.63;5000716;28;20040;-65
2021/01/21 02:48:06;;;;;;;3.70;1.20;;;;;;;8.17;85.08;98154.34;5004228;28;20033;-64
2021/01/21 02:50:31;;;;;;;2.90;1.10;;;;;;;8.18;85.24;98149.97;5005739;28;20017;-65
2021/01/21 02:53:00;;;;;;;3.83;1.00;;;;;;;8.27;84.93;98134.09;5007396;28;20370;-65
2021/01/21 02:56:04;;;;;;;3.57;1.10;;;;;;;8.19;85.76;98131.72;4998753;28;20026;-65
2021/01/21 02:58:34;;;;;;;3.83;1.03;;;;;;;8.17;85.00;98122.25;5004601;28;20034;-65
2021/01/21 03:01:02;;;;;;;2.43;1.03;;;;;;;8.18;85.27;98124.81;5007136;28;20026;-65
2021/01/21 03:03:29;;;;;;;4.10;1.50;;;;;;;8.20;84.95;98122.16;5004016;28;20029;-66
2021/01/21 03:05:57;;;;;;;2.97;1.00;;;;;;;8.08;85.62;98118.16;5007450;28;20040;-65
2021/01/21 03:08:24;;;;;;;2.77;1.20;;;;;;;8.03;85.81;98104.47;5007471;28;20107;-65
2021/01/21 03:10:49;;;;;;;4.90;1.13;;;;;;;8.06;85.44;98106.09;5004425;28;20050;-65
2021/01/21 03:13:15;;;;;;;3.37;1.20;;;;;;;8.02;85.79;98086.28;5007649;28;20085;-65
2021/01/21 03:15:40;;;;;;;3.50;1.07;;;;;;;8.10;85.01;98085.13;4999408;28;20371;-65
2021/01/21 03:18:06;;;;;;;4.30;1.17;;;;;;;8.29;83.68;98084.56;5004071;28;20026;-65
2021/01/21 03:20:32;;;;;;;2.37;1.03;;;;;;;8.26;84.05;98076.88;5004848;28;20439;-65
2021/01/21 03:22:57;;;;;;;4.00;1.27;;;;;;;8.33;83.61;98068.78;5007415;28;20021;-65
2021/01/21 03:25:22;;;;;;;3.30;1.30;;;;;;;8.34;83.62;98078.34;5005405;28;20105;-65
2021/01/21 03:27:48;;;;;;;2.53;1.03;;;;;;;8.45;82.19;98065.84;5001204;28;20128;-65
2021/01/21 03:30:14;;;;;;;4.83;1.10;;;;;;;8.46;82.53;98066.69;5005238;28;20032;-65
2021/01/21 03:32:39;;;;;;;4.07;1.00;;;;;;;8.50;82.03;98065.69;5010361;28;20021;-66
2021/01/21 03:35:05;;;;;;;2.43;1.00;;;;;;;8.27;83.67;98065.56;5009574;28;20401;-66
2021/01/21 03:37:30;;;;;;;3.10;1.00;;;;;;;8.40;82.65;98059.94;5004586;28;20676;-66
2021/01/21 03:39:56;;;;;;;2.60;1.10;;;;;;;8.35;82.56;98053.16;5003259;28;21540;-65
2021/01/21 03:42:21;;;;;;;2.93;1.47;;;;;;;8.58;81.54;98055.00;5008849;28;20552;-65
2021/01/21 03:44:47;;;;;;;4.23;1.00;;;;;;;8.56;81.20;98060.28;5007894;28;20449;-65
2021/01/21 03:47:12;;;;;;;4.43;1.10;;;;;;;8.49;82.00;98057.03;5007993;28;20026;-65
2021/01/21 03:49:37;;;;;;;2.90;0.90;;;;;;;8.42;81.64;98052.06;5009737;28;20034;-65
2021/01/21 03:52:03;;;;;;;3.17;1.20;;;;;;;8.43;82.24;98062.44;5009927;28;20025;-65
2021/01/21 03:54:28;;;;;;;1.87;0.90;;;;;;;8.57;81.04;98054.16;5008086;28;20463;-65
2021/01/21 03:56:54;;;;;;;2.03;0.90;;;;;;;8.50;81.53;98055.28;5007050;28;20034;-65
2021/01/21 03:59:20;;;;;;;3.37;1.00;;;;;;;8.68;80.09;98046.84;5004206;28;20058;-64
2021/01/21 04:01:46;;;;;;;4.53;1.00;;;;;;;8.86;79.54;98044.53;5011885;28;20022;-65
2021/01/21 04:04:12;;;;;;;2.17;0.90;;;;;;;8.90;78.85;98041.75;5010333;28;20037;-65
2021/01/21 04:06:37;;;;;;;3.40;0.90;;;;;;;8.97;78.60;98031.97;5007000;28;20088;-65
2021/01/21 04:09:03;;;;;;;2.70;0.90;;;;;;;9.02;79.07;98030.03;5002417;28;20033;-65
2021/01/21 04:11:29;;;;;;;4.70;0.90;;;;;;;9.12;78.23;98026.22;5003420;28;20021;-65
2021/01/21 04:13:54;;;;;;;2.57;1.00;;;;;;;9.20;77.78;98024.16;5008286;28;20034;-65
2021/01/21 04:16:20;;;;;;;3.27;0.93;;;;;;;9.28;77.25;98011.69;5011903;28;20026;-65
2021/01/21 04:18:45;;;;;;;2.37;0.90;;;;;;;9.20;78.30;98018.94;5005918;28;20105;-65
2021/01/21 04:21:11;;;;;;;4.50;0.90;;;;;;;9.11;78.15;97993.22;5011648;28;20026;-66
2021/01/21 04:23:36;;;;;;;2.63;0.83;;;;;;;9.24;77.54;98010.13;5010312;28;20061;-65
2021/01/21 04:26:03;;;;;;;1.90;0.90;;;;;;;9.17;78.01;98003.41;5007076;28;20102;-65
2021/01/21 04:28:28;;;;;;;1.17;0.70;;;;;;;9.38;76.09;98002.63;5002844;28;20030;-65
2021/01/21 04:30:53;;;;;;;2.90;0.83;;;;;;;9.35;76.74;97981.91;5012431;28;20028;-65
2021/01/21 04:33:19;;;;;;;1.97;1.17;;;;;;;9.33;77.66;97998.50;5012367;28;20030;-65
2021/01/21 04:35:44;;;;;;;2.43;0.70;;;;;;;9.47;77.03;97982.34;5008031;28;20117;-65
2021/01/21 04:38:10;;;;;;;1.77;0.80;;;;;;;9.52;76.15;97977.78;5007456;28;20112;-65
2021/01/21 04:40:35;;;;;;;3.93;1.03;;;;;;;9.43;76.95;97973.75;5006551;28;20026;-65
2021/01/21 04:43:01;;;;;;;3.30;0.77;;;;;;;9.46;77.37;97967.59;5004592;28;20394;-65
2021/01/21 04:45:26;;;;;;;3.90;0.90;;;;;;;9.67;75.70;97964.16;5009437;28;20029;-66
2021/01/21 04:47:53;;;;;;;1.43;0.67;;;;;;;9.80;75.61;97965.34;5009416;28;20084;-65
2021/01/21 04:50:19;;;;;;;1.70;0.80;;;;;;;9.86;75.34;97970.34;5000517;28;20100;-65
2021/01/21 04:52:46;;;;;;;3.03;0.50;;;;;;;10.03;74.26;97954.00;5005993;28;20030;-65
2021/01/21 04:55:16;;;;;;;1.80;0.83;;;;;;;10.01;74.76;97954.97;5004434;28;20026;-65
2021/01/21 04:57:57;;;;;;;4.80;0.90;;;;;;;10.16;73.69;97949.13;5006183;28;20181;-65
2021/01/21 05:00:24;;;;;;;2.60;0.93;;;;;;;10.07;74.98;97949.53;5010719;28;20025;-66
2021/01/21 05:02:50;;;;;;;1.63;0.97;;;;;;;10.05;73.94;97935.66;5004565;28;20520;-65
2021/01/21 05:05:16;;;;;;;1.43;0.60;;;;;;;10.06;74.15;97943.44;5005651;28;20037;-66
2021/01/21 05:07:42;;;;;;;2.93;0.90;;;;;;;10.17;74.07;97937.75;5009098;28;20030;-65
2021/01/21 05:10:08;;;;;;;1.60;0.60;;;;;;;10.24;73.84;97926.19;5006200;28;20037;-65
2021/01/21 05:12:35;;;;;;;1.67;0.73;;;;;;;10.26;73.69;97908.69;5009821;28;20080;-66
2021/01/21 05:15:01;;;;;;;3.43;0.70;;;;;;;10.28;73.62;97923.38;5007853;28;20061;-65
2021/01/21 05:17:28;;;;;;;1.87;0.60;;;;;;;10.31;73.74;97922.41;5005983;28;20060;-65
2021/01/21 05:19:54;;;;;;;1.93;0.83;;;;;;;10.33;73.94;97920.59;5007345;28;20029;-65
2021/01/21 05:22:20;;;;;;;1.83;0.80;;;;;;;10.42;73.39;97920.19;5009501;28;20036;-65
2021/01/21 05:24:46;;;;;;;2.97;0.87;;;;;;;10.42;73.33;97911.53;5009144;28;20033;-65
2021/01/21 05:27:16;;;;;;;5.13;0.80;;;;;;;10.57;72.76;97916.91;5008639;28;20037;-65
2021/01/21 05:29:46;;;;;;;0.93;0.60;;;;;;;10.53;73.23;97889.22;5005729;28;20044;-65
2021/01/21 05:32:13;;;;;;;1.23;0.60;;;;;;;10.60;72.31;97886.34;5005630;28;20037;-65
2021/01/21 05:34:39;;;;;;;1.60;0.50;;;;;;;10.68;72.26;97892.09;5007107;28;20405;-65
2021/01/21 05:37:08;;;;;;;3.10;0.77;;;;;;;10.73;72.42;97882.25;5005026;28;20026;-64
2021/01/21 05:39:41;;;;;;;3.77;1.00;;;;;;;10.61;73.06;97888.88;5006851;28;20141;-65
2021/01/21 05:42:06;;;;;;;2.33;0.70;;;;;;;10.83;71.91;97873.94;5003345;28;20032;-65
2021/01/21 05:44:33;;;;;;;1.03;0.60;;;;;;;10.86;72.05;97884.25;4999997;28;20022;-66
2021/01/21 05:47:06;;;;;;;1.87;0.70;;;;;;;10.75;72.83;97873.44;4999305;28;20105;-66
2021/01/21 05:49:32;;;;;;;2.87;0.80;;;;;;;11.04;71.18;97869.50;5010769;28;20053;-65
2021/01/21 05:51:58;;;;;;;2.63;0.93;;;;;;;10.85;72.12;97886.94;5010516;28;20034;-65
2021/01/21 05:54:25;;;;;;;0.40;0.30;;;;;;;10.79;73.02;97876.78;5017888;28;20025;-65
2021/01/21 05:56:53;;;;;;;1.57;0.80;;;;;;;10.90;72.69;97873.66;5015099;28;20025;-66
2021/01/21 05:59:20;;;;;;;4.40;0.80;;;;;;;10.82;73.08;97881.84;5018768;28;20481;-66
2021/01/21 06:01:47;;;;;;;2.00;0.83;;;;;;;10.86;72.90;97886.03;5015320;28;20025;-66
2021/01/21 06:04:13;;;;;;;1.20;0.63;;;;;;;10.83;73.42;97887.00;5014822;28;20079;-65
2021/01/21 06:06:39;;;;;;;2.17;0.67;;;;;;;10.84;73.24;97882.63;5006647;28;20029;-65
2021/01/21 06:09:07;;;;;;;1.30;0.57;;;;;;;10.83;73.59;97880.94;5017773;28;20040;-66
2021/01/21 06:11:33;;;;;;;1.50;0.53;;;;;;;10.78;73.73;97890.75;5010477;28;20057;-65
2021/01/21 06:14:00;;;;;;;1.60;0.70;;;;;;;10.83;74.45;97894.84;5012670;28;20465;-66
2021/01/21 06:16:26;;;;;;;2.37;0.80;;;;;;;10.77;73.96;97896.88;5007932;28;20100;-65
2021/01/21 06:18:52;;;;;;;2.23;0.60;;;;;;;10.80;74.10;97888.94;5007547;28;20131;-65
2021/01/21 06:21:23;;;;;;;1.47;0.70;;;;;;;10.66;77.32;97923.53;4994725;28;20519;-66
2021/01/21 06:24:00;;;;;;;3.93;0.80;;;;;;;10.46;79.56;97937.44;5002950;28;20313;-66
2021/01/21 06:26:49;;;;;;;0.83;0.53;;;;;;;10.18;83.17;97984.72;5004419;28;20026;-65
2021/01/21 06:29:19;;;;;;;7.60;1.23;;;;;;;9.74;89.56;98076.97;5004639;28;20042;-65
2021/01/21 06:31:49;;;;;;;2.03;0.63;;;;;;;8.89;92.52;98081.75;5027957;28;20022;-65
2021/01/21 06:34:22;;;;;;;1.20;0.30;;;;;;;8.10;94.11;98095.53;4989312;28;20033;-64
2021/01/21 06:36:52;;;;;;;1.83;0.40;;;;;;;7.55;100.00;98131.00;5000747;28;20033;-65
2021/01/21 06:39:52;;;;;;;0.47;0.30;;;;;;;7.30;98.93;98140.38;5018545;28;20051;-65
2021/01/21 06:42:23;;;;;;;0.30;0.30;;;;;;;7.14;94.54;98172.81;5012616;28;20116;-66
2021/01/21 06:44:51;;;;;;;0.37;0.30;;;;;;;7.12;92.72;98151.22;5009597;28;20117;-65
2021/01/21 06:47:19;;;;;;;1.07;0.40;;;;;;;6.95;95.48;98157.72;5005919;28;20042;-66
2021/01/21 06:49:45;;;;;;;1.00;0.50;;;;;;;6.83;93.60;98142.44;4990965;28;20069;-64
2021/01/21 06:52:11;;;;;;;0.30;0.30;;;;;;;6.70;93.67;98146.22;4996058;28;20026;-65
2021/01/21 06:54:38;;;;;;;0.67;0.40;;;;;;;6.84;91.91;98154.53;4990415;28;20081;-64
2021/01/21 06:57:35;;;;;;;1.50;0.50;;;;;;;6.90;91.24;98172.56;4991663;28;20026;-64
2021/01/21 07:00:02;;;;;;;0.33;0.30;;;;;;;6.81;92.05;98170.19;5005335;28;20367;-65
2021/01/21 07:02:50;;;;;;;3.33;1.17;;;;;;;6.82;90.43;98171.91;5014485;28;20030;-66
2021/01/21 07:05:20;;;;;;;1.13;0.30;;;;;;;6.78;90.89;98217.00;5007302;28;20299;-64
2021/01/21 07:07:58;;;;;;;5.27;0.80;;;;;;;6.74;90.29;98199.78;5005980;28;20368;-64
2021/01/21 07:10:41;;;;;;;1.00;0.50;;;;;;;6.61;91.35;98196.63;4996632;28;20096;-66
2021/01/21 07:13:13;;;;;;;0.73;0.40;;;;;;;6.45;93.72;98209.13;5024377;28;20075;-65
2021/01/21 07:15:45;;;;;;;1.17;0.40;;;;;;;6.40;93.58;98194.50;5003839;28;20029;-65
2021/01/21 07:18:18;;;;;;;;;;;;;;;6.32;93.96;98209.44;5029529;28;20087;-65
2021/01/21 07:20:59;;;;;;;1.77;0.63;;;;;;;6.26;93.80;98197.41;5015654;28;20376;-65
2021/01/21 07:23:50;;;;;;;1.17;0.50;;;;;;;6.19;94.69;98188.06;5025035;28;20402;-65
2021/01/21 07:26:35;;;;;;;0.43;0.43;;;;;;;6.25;93.84;98265.78;5009495;28;20288;-65
2021/01/21 07:29:14;;;;;;;3.60;0.43;;;;;;;6.22;93.76;98234.72;4993212;28;20273;-64
2021/01/21 07:31:59;;;;;;;5.17;1.20;;;;;;;6.13;94.54;98222.78;5018627;28;20040;-65
2021/01/21 07:34:29;;;;;;;1.90;0.60;;;;;;;6.14;94.52;98228.81;5014677;28;20289;-65
2021/01/21 07:37:06;;;;;;;1.57;0.67;;;;;;;6.14;95.45;98270.31;5015406;28;20285;-66
2021/01/21 07:39:53;;;;;;;2.87;0.93;;;;;;;6.04;96.05;98266.19;4990388;28;20369;-65
2021/01/21 07:42:21;;;;;;;3.23;1.00;;;;;;;6.13;95.09;98250.47;5009823;28;20371;-67
2021/01/21 07:44:58;;;;;;;2.87;0.77;;;;;;;6.11;95.21;98276.44;5007638;28;20661;-66
2021/01/21 07:47:28;;;;;;;3.00;0.90;;;;;;;6.16;94.92;98266.81;4990586;28;20697;-66
2021/01/21 07:50:16;;;;;;;1.67;0.77;;;;;;;6.16;95.38;98294.50;5004262;28;20848;-65
2021/01/21 07:52:42;;;;;;;1.53;0.60;;;;;;;6.23;94.66;98310.81;5019682;28;20272;-65
2021/01/21 07:55:08;;;;;;;0.50;0.43;;;;;;;6.33;93.90;98292.44;5006945;28;20717;-64
2021/01/21 07:57:34;;;;;;;1.40;0.63;;;;;;;6.30;93.77;98302.88;5001360;28;20292;-66
2021/01/21 08:00:01;;;;;;;7.13;1.33;;;;;;;6.34;93.63;98293.28;4989693;28;20281;-64
2021/01/21 08:02:50;;;;;;;3.27;0.77;;;;;;;6.30;94.81;98302.88;5026962;28;20079;-64
2021/01/21 08:05:23;;;;;;;1.70;0.70;;;;;;;6.41;92.65;98306.09;4993206;28;20316;-66
2021/01/21 08:07:49;;;;;;;1.13;0.63;;;;;;;6.46;92.50;98335.41;5011239;28;20026;-65
2021/01/21 08:10:20;;;;;;;8.13;1.00;;;;;;;6.49;92.97;98338.81;5000087;28;20276;-64
2021/01/21 08:12:52;;;;;;;1.67;0.83;;;;;;;6.64;91.14;98354.09;5015972;28;20282;-65
2021/01/21 08:15:19;;;;;;;6.13;1.17;;;;;;;6.56;92.10;98356.00;5028016;28;20279;-65
2021/01/21 08:17:45;;;;;;;3.50;0.90;;;;;;;6.66;91.03;98358.38;5015480;28;20026;-64
2021/01/21 08:20:12;;;;;;;2.67;0.80;;;;;;;6.59;91.89;98361.13;5012966;28;20060;-65
2021/01/21 08:23:10;;;;;;;2.87;0.83;;;;;;;6.62;91.07;98356.72;5018647;28;20025;-65
2021/01/21 08:25:43;;;;;;;2.10;0.77;;;;;;;6.72;89.82;98363.44;5004954;28;20060;-66
2021/01/21 08:28:10;;;;;;;1.63;0.73;;;;;;;6.67;90.96;98387.81;5020712;28;20083;-65
2021/01/21 08:30:36;;;;;;;4.60;0.90;;;;;;;6.61;90.98;98387.91;5017496;28;20021;-66
2021/01/21 08:33:10;;;;;;;2.97;0.70;;;;;;;6.65;90.85;98397.34;5022450;28;20128;-66
2021/01/21 08:35:43;;;;;;;4.03;0.70;;;;;;;6.65;90.57;98386.94;5024196;28;20038;-65
2021/01/21 08:38:11;;;;;;;2.93;0.93;;;;;;;6.66;90.24;98388.66;5021418;28;20381;-65
2021/01/21 08:40:38;;;;;;;0.60;0.50;;;;;;;6.72;89.91;98393.75;5020565;28;20040;-64
2021/01/21 08:43:06;;;;;;;2.20;0.87;;;;;;;6.73;89.77;98411.03;4993871;28;20397;-66
2021/01/21 08:45:32;;;;;;;6.30;0.70;;;;;;;6.66;89.96;98407.72;4997444;28;20029;-66
2021/01/21 08:47:57;;;;;;;2.70;0.80;;;;;;;6.69;89.59;98414.59;4993583;28;20393;-65
2021/01/21 08:50:33;;;;;;;2.47;0.87;;;;;;;6.63;89.62;98402.56;5002946;28;20037;-65
2021/01/21 08:53:00;;;;;;;2.20;0.60;;;;;;;6.70;89.43;98418.88;5028459;28;20142;-66
2021/01/21 08:55:50;;;;;;;1.07;0.60;;;;;;;6.85;88.81;98421.16;5011630;28;20030;-66
2021/01/21 08:58:16;;;;;;;3.83;0.80;;;;;;;7.37;86.38;98429.59;5024914;28;20025;-66
2021/01/21 09:01:04;;;;;;;4.00;1.13;;;;;;;7.50;85.30;98439.66;5013127;28;20030;-66
2021/01/21 09:03:49;;;;;;;2.33;0.60;;;;;;;7.60;83.97;98425.56;5011142;28;20120;-65
2021/01/21 09:06:16;;;;;;;1.53;0.70;;;;;;;7.77;83.94;98443.41;5002834;28;20095;-66
2021/01/21 09:08:56;;;;;;;4.37;0.90;;;;;;;7.67;83.99;98444.50;5015510;28;20026;-66
2021/01/21 09:11:38;;;;;;;2.80;0.50;;;;;;;7.28;84.52;98456.66;5006802;28;20382;-66
2021/01/21 09:14:14;;;;;;;3.63;1.17;;;;;;;7.16;85.63;98464.72;4993452;28;20034;-66
2021/01/21 09:16:51;;;;;;;8.60;0.60;;;;;;;7.14;86.16;98474.25;5021678;28;20045;-65
2021/01/21 09:19:36;;;;;;;1.83;0.70;;;;;;;7.22;85.53;98480.16;4996986;28;20037;-65
2021/01/21 09:22:02;;;;;;;1.33;0.60;;;;;;;7.15;84.33;98470.78;5004004;28;20030;-65
2021/01/21 09:24:29;;;;;;;4.10;1.17;;;;;;;7.15;85.35;98481.16;5016988;28;20161;-66
2021/01/21 09:27:24;;;;;;;2.37;0.80;;;;;;;7.19;85.50;98494.09;5000274;28;20510;-66
2021/01/21 09:29:51;;;;;;;6.63;1.17;;;;;;;7.21;85.01;98497.50;5000613;28;20060;-66
2021/01/21 09:32:20;;;;;;;1.93;0.70;;;;;;;7.21;83.50;98489.72;5011723;28;20058;-66
2021/01/21 09:35:03;;;;;;;3.33;0.77;;;;;;;7.30;83.10;98512.06;5015796;28;20033;-64
2021/01/21 09:37:32;;;;;;;4.72;0.60;;;;;;;7.37;82.88;98500.63;5001545;28;20442;-66
2021/01/21 09:39:58;;;;;;;6.73;0.90;;;;;;;7.37;82.75;98507.56;5022052;28;20457;-65
2021/01/21 09:42:24;;;;;;;2.10;0.60;;;;;;;7.37;81.16;98503.22;4995445;28;20113;-65
2021/01/21 09:44:49;;;;;;;2.77;0.77;;;;;;;7.32;82.83;98521.53;4991852;28;20118;-64
2021/01/21 09:47:15;;;;;;;2.23;0.90;;;;;;;7.34;80.70;98514.56;5012102;28;20112;-66
2021/01/21 09:49:42;;;;;;;3.17;1.00;;;;;;;7.30;80.82;98517.25;5026601;28;20049;-67
2021/01/21 09:52:08;;;;;;;4.40;0.70;;;;;;;7.23;80.93;98520.84;5013784;28;20148;-66
2021/01/21 09:54:33;;;;;;;1.97;0.53;;;;;;;7.19;80.43;98514.03;5027626;28;20064;-66
2021/01/21 09:56:59;;;;;;;2.37;0.70;;;;;;;7.14;81.18;98521.03;5009346;28;20061;-66
2021/01/21 09:59:24;;;;;;;3.17;0.87;;;;;;;7.08;80.41;98527.22;5005551;28;20031;-66
2021/01/21 10:01:50;;;;;;;3.90;0.60;;;;;;;7.13;79.46;98514.13;5013001;28;20025;-65
2021/01/21 10:04:16;;;;;;;9.00;1.17;;;;;;;7.17;78.78;98519.25;5003360;28;20026;-66
2021/01/21 10:06:41;;;;;;;4.07;1.33;;;;;;;7.11;78.93;98521.97;5004583;28;20030;-67
2021/01/21 10:09:07;;;;;;;1.23;0.60;;;;;;;7.14;79.97;98534.03;5009397;28;20036;-65
2021/01/21 10:11:32;;;;;;;2.93;0.80;;;;;;;7.10;79.30;98540.19;5030209;28;20026;-65
2021/01/21 10:13:58;;;;;;;2.83;1.13;;;;;;;7.15;80.24;98540.94;5010729;28;20031;-65
2021/01/21 10:16:23;;;;;;;5.27;1.20;;;;;;;7.11;79.21;98524.56;5031133;28;20083;-66
2021/01/21 10:18:48;;;;;;;2.40;0.90;;;;;;;7.08;78.96;98536.78;5013386;28;20048;-65
2021/01/21 10:21:14;;;;;;;2.70;0.70;;;;;;;7.14;80.13;98539.22;4995678;28;20067;-66
2021/01/21 10:23:40;;;;;;;5.10;1.10;;;;;;;7.18;78.79;98522.72;4991576;28;20057;-66
2021/01/21 10:26:05;;;;;;;3.97;1.30;;;;;;;7.14;78.51;98534.88;5022340;28;20104;-65
2021/01/21 10:28:31;;;;;;;2.33;1.07;;;;;;;7.22;78.00;98539.94;5013856;28;20388;-64
2021/01/21 10:30:56;;;;;;;4.67;0.70;;;;;;;7.24;77.63;98545.97;5022981;28;20124;-66
2021/01/21 10:33:21;;;;;;;6.67;1.20;;;;;;;7.25;78.72;98529.47;5010531;28;20026;-66
2021/01/21 10:35:47;;;;;;;7.97;1.20;;;;;;;7.25;78.90;98539.88;5014225;28;20576;-66
2021/01/21 10:38:12;;;;;;;2.70;1.10;;;;;;;7.32;79.14;98536.28;5020143;28;20026;-66
2021/01/21 10:40:39;;;;;;;5.27;1.40;;;;;;;7.33;78.40;98540.59;5012072;28;20033;-67
2021/01/21 10:43:04;;;;;;;3.57;0.97;;;;;;;7.41;78.43;98546.50;5022685;28;20033;-66
2021/01/21 10:45:30;;;;;;;4.20;0.70;;;;;;;7.38;77.92;98536.13;5019289;28;20028;-66
2021/01/21 10:47:55;;;;;;;3.33;1.47;;;;;;;7.46;79.82;98529.03;5031102;28;20044;-66
2021/01/21 10:50:20;;;;;;;3.90;0.90;;;;;;;7.51;79.21;98537.63;5017561;28;20025;-67
2021/01/21 10:52:46;;;;;;;2.13;0.70;;;;;;;7.51;76.96;98535.03;5011016;28;20021;-67
2021/01/21 10:55:12;;;;;;;8.23;1.23;;;;;;;7.61;77.62;98544.31;5005946;28;20118;-64
2021/01/21 10:57:37;;;;;;;3.70;0.60;;;;;;;7.61;77.26;98549.50;4991023;28;20033;-64
2021/01/21 11:00:04;;;;;;;2.90;1.00;;;;;;;7.69;77.70;98527.69;4997591;28;20034;-67
2021/01/21 11:02:29;;;;;;;1.67;0.87;;;;;;;7.75;76.15;98535.34;5004998;28;20026;-65
2021/01/21 11:04:55;;;;;;;3.37;0.80;;;;;;;7.75;77.06;98530.13;4991013;28;20508;-67
2021/01/21 11:07:20;;;;;;;2.50;0.70;;;;;;;7.80;76.18;98533.50;5008550;28;20041;-66
2021/01/21 11:09:46;;;;;;;1.83;0.60;;;;;;;7.89;76.40;98541.97;5015665;28;20401;-65
2021/01/21 11:12:11;;;;;;;4.13;0.73;;;;;;;7.93;76.09;98529.75;5011426;28;20037;-67
2021/01/21 11:14:37;;;;;;;1.77;0.70;;;;;;;7.90;76.05;98545.44;4991102;28;20030;-65
2021/01/21 11:17:03;;;;;;;2.60;0.80;;;;;;;7.85;76.62;98548.13;5007311;28;20117;-66
2021/01/21 11:19:28;;;;;;;3.53;0.90;;;;;;;7.83;75.09;98549.91;5011082;28;20030;-66
2021/01/21 11:21:54;;;;;;;3.70;1.27;;;;;;;7.83;75.55;98542.09;4998309;28;20026;-65
2021/01/21 11:24:19;;;;;;;3.70;1.07;;;;;;;7.79;76.00;98547.41;5018918;28;20088;-66
2021/01/21 11:26:45;;;;;;;5.17;1.40;;;;;;;7.79;75.62;98542.22;5002129;28;20108;-66
2021/01/21 11:29:11;;;;;;;7.17;1.20;;;;;;;7.85;74.74;98542.06;5008472;28;20420;-64
2021/01/21 11:31:36;;;;;;;2.43;1.00;;;;;;;7.94;75.70;98547.06;4990363;28;20109;-65
2021/01/21 11:34:02;;;;;;;2.30;1.00;;;;;;;7.94;75.07;98541.84;4990030;28;20110;-64
2021/01/21 11:36:27;;;;;;;6.57;1.47;;;;;;;7.92;74.21;98517.63;5013140;28;20511;-66
2021/01/21 11:38:52;;;;;;;3.23;0.70;;;;;;;7.91;74.05;98529.78;5020779;28;20021;-66
2021/01/21 11:41:18;;;;;;;2.10;0.77;;;;;;;8.05;73.83;98529.44;4999175;28;20040;-65
2021/01/21 11:43:43;;;;;;;1.87;0.80;;;;;;;8.13;72.78;98553.56;4999005;28;20049;-65
2021/01/21 11:46:09;;;;;;;1.13;0.70;;;;;;;8.08;73.15;98537.19;4993276;28;20030;-65
2021/01/21 11:48:34;;;;;;;3.17;0.90;;;;;;;8.03;73.23;98541.66;5006823;28;20029;-65